createdAt,value
2023-02-09T00:04:20.136Z,101962.04
2023-02-09T00:09:23.056Z,101952.41
2023-02-09T00:14:26.872Z,101951.89
2023-02-09T00:19:31.740Z,101933.91
2023-02-09T00:24:36.784Z,101924.09
2023-02-09T00:29:39.606Z,101929.09
2023-02-09T00:34:42.514Z,101925.38
2023-02-09T00:39:45.408Z,101923.36
2023-02-09T00:44:48.254Z,101921.46
2023-02-09T00:49:51.113Z,101915.70
2023-02-09T00:54:53.916Z,101913.50
2023-02-09T00:59:56.811Z,101906.54
2023-02-09T01:05:00.201Z,101892.34
2023-02-09T01:10:04.770Z,101882.45
2023-02-09T01:15:10.325Z,101882.20
2023-02-09T01:20:14.091Z,101878.05
2023-02-09T01:25:17.039Z,101873.71
2023-02-09T01:30:19.945Z,101862.49
2023-02-09T01:35:22.808Z,101855.95
2023-02-09T01:40:25.672Z,101842.08
2023-02-09T01:45:50.177Z,101846.85
2023-02-09T01:50:58.043Z,101845.60
2023-02-09T01:56:20.430Z,101845.15
2023-02-09T02:01:24.894Z,101835.38
2023-02-09T02:06:27.810Z,101843.02
2023-02-09T02:11:33.005Z,101845.26
2023-02-09T02:17:04.897Z,101848.95
2023-02-09T02:23:08.040Z,101845.92
2023-02-09T02:29:04.814Z,101838.39
2023-02-09T02:34:45.805Z,101830.45
2023-02-09T02:40:32.020Z,101824.25
2023-02-09T02:45:51.269Z,101814.46
2023-02-09T02:51:18.429Z,101807.16
2023-02-09T02:56:44.327Z,101811.46
2023-02-09T03:01:58.502Z,101801.31
2023-02-09T03:07:05.545Z,101787.79
2023-02-09T03:12:30.849Z,101779.94
2023-02-09T03:18:14.859Z,101779.34
2023-02-09T03:23:51.952Z,101769.99
2023-02-09T03:28:59.048Z,101757.13
2023-02-09T03:34:02.456Z,101758.27
2023-02-09T03:39:05.538Z,101756.26
2023-02-09T03:44:27.667Z,101747.27
2023-02-09T03:49:35.104Z,101741.11
2023-02-09T03:54:38.469Z,101742.80
2023-02-09T03:59:42.127Z,101733.21
2023-02-09T04:04:45.189Z,101721.65
2023-02-09T04:09:48.307Z,101706.08
2023-02-09T04:14:51.115Z,101702.50
2023-02-09T04:19:53.946Z,101701.02
2023-02-09T04:24:56.797Z,101705.83
2023-02-09T04:29:59.614Z,101705.92
2023-02-09T04:35:02.499Z,101703.89
2023-02-09T04:40:07.705Z,101700.73
2023-02-09T04:45:10.794Z,101702.19
2023-02-09T04:50:15.123Z,101701.45
2023-02-09T04:55:18.013Z,101704.70
2023-02-09T05:00:21.025Z,101702.42
2023-02-09T05:05:23.916Z,101699.15
2023-02-09T05:10:26.756Z,101705.66
2023-02-09T05:15:29.771Z,101702.61
2023-02-09T05:20:32.594Z,101707.23
2023-02-09T05:25:35.756Z,101706.80
2023-02-09T05:30:38.565Z,101692.63
2023-02-09T05:35:41.382Z,101691.05
2023-02-09T05:40:45.331Z,101685.31
2023-02-09T05:45:48.337Z,101680.73
2023-02-09T05:50:51.259Z,101686.64
2023-02-09T05:55:54.174Z,101687.65
2023-02-09T06:00:57.429Z,101688.30
2023-02-09T06:06:00.269Z,101699.45
2023-02-09T06:11:06.177Z,101700.83
2023-02-09T06:16:09.078Z,101708.69
2023-02-09T06:21:12.772Z,101711.91
2023-02-09T06:26:17.681Z,101710.23
2023-02-09T06:31:20.614Z,101715.95
2023-02-09T06:36:23.610Z,101712.87
2023-02-09T06:41:26.436Z,101718.09
2023-02-09T06:46:29.386Z,101726.05
2023-02-09T06:51:32.347Z,101732.55
2023-02-09T06:56:35.344Z,101736.11
2023-02-09T07:01:38.207Z,101735.34
2023-02-09T07:06:41.060Z,101733.90
2023-02-09T07:11:43.992Z,101729.37
2023-02-09T07:16:46.859Z,101721.70
2023-02-09T07:21:50.024Z,101721.61
2023-02-09T07:26:53.033Z,101717.36
2023-02-09T07:31:57.247Z,101721.23
2023-02-09T07:37:00.258Z,101714.91
2023-02-09T07:42:03.355Z,101713.80
2023-02-09T07:47:06.138Z,101708.88
2023-02-09T07:52:09.119Z,101699.86
2023-02-09T07:57:13.800Z,101695.93
2023-02-09T08:02:31.421Z,101704.40
2023-02-09T08:07:34.477Z,101707.04
2023-02-09T08:12:57.265Z,101699.14
2023-02-09T08:18:03.467Z,101698.82
2023-02-09T08:23:13.428Z,101705.17
2023-02-09T08:28:17.171Z,101703.16
2023-02-09T08:33:20.066Z,101695.42
2023-02-09T08:38:22.920Z,101689.58
2023-02-09T08:43:25.833Z,101690.08
2023-02-09T08:48:33.706Z,101685.91
2023-02-09T08:53:38.070Z,101685.61
2023-02-09T08:58:40.938Z,101686.11
2023-02-09T09:03:43.853Z,101685.66
2023-02-09T09:08:46.649Z,101677.85
2023-02-09T09:13:49.631Z,101677.55
2023-02-09T09:18:52.459Z,101680.23
2023-02-09T09:23:55.295Z,101671.61
2023-02-09T09:28:58.146Z,101669.39
2023-02-09T09:34:01.013Z,101665.00
2023-02-09T09:39:04.168Z,101659.81
2023-02-09T09:44:29.081Z,101651.86
2023-02-09T09:49:33.373Z,101645.53
2023-02-09T09:54:37.813Z,101647.08
2023-02-09T09:59:41.906Z,101639.34
2023-02-09T10:04:44.821Z,101638.13
2023-02-09T10:09:57.383Z,101636.85
2023-02-09T10:15:15.813Z,101625.21
2023-02-09T10:20:38.657Z,101623.67
2023-02-09T10:26:04.890Z,101625.04
2023-02-09T10:31:19.480Z,101615.52
2023-02-09T10:36:37.318Z,101600.77
2023-02-09T10:41:43.880Z,101597.73
2023-02-09T10:46:47.567Z,101593.73
2023-02-09T10:51:51.212Z,101575.21
2023-02-09T10:56:55.768Z,101573.81
2023-02-09T11:02:02.287Z,101565.58
2023-02-09T11:07:20.695Z,101553.15
2023-02-09T11:12:25.398Z,101543.27
2023-02-09T11:17:42.000Z,101535.20
2023-02-09T11:23:13.315Z,101529.02
2023-02-09T11:28:52.540Z,101516.18
2023-02-09T11:34:15.736Z,101513.27
2023-02-09T11:39:46.374Z,101509.88
2023-02-09T11:45:10.999Z,101498.65
2023-02-09T11:50:31.396Z,101491.10
2023-02-09T11:55:48.572Z,101481.27
2023-02-09T12:01:15.521Z,101475.45
2023-02-09T12:06:23.192Z,101474.55
2023-02-09T12:11:49.676Z,101468.23
2023-02-09T12:17:07.510Z,101464.09
2023-02-09T12:22:35.552Z,101456.65
2023-02-09T12:28:17.125Z,101447.59
2023-02-09T12:33:22.726Z,101438.15
2023-02-09T12:38:26.185Z,101427.86
2023-02-09T12:43:31.993Z,101418.82
2023-02-09T12:49:05.636Z,101418.18
2023-02-09T12:54:53.429Z,101404.30
2023-02-09T12:59:56.547Z,101401.30
2023-02-09T13:05:18.764Z,101390.73
2023-02-09T13:10:48.746Z,101382.04
2023-02-09T13:15:54.334Z,101370.08
2023-02-09T13:21:18.894Z,101361.17
2023-02-09T13:26:56.038Z,101358.27
2023-02-09T13:32:27.905Z,101354.61
2023-02-09T13:37:59.775Z,101345.70
2023-02-09T13:43:12.650Z,101337.60
2023-02-09T13:48:39.382Z,101328.16
2023-02-09T13:53:56.408Z,101322.30
2023-02-09T13:59:00.495Z,101317.33
2023-02-09T14:04:14.433Z,101318.13
2023-02-09T14:09:23.068Z,101311.41
2023-02-09T14:14:55.003Z,101309.48
2023-02-09T14:20:00.433Z,101304.59
2023-02-09T14:25:23.021Z,101296.48
2023-02-09T14:30:34.319Z,101303.96
2023-02-09T14:35:41.509Z,101299.29
2023-02-09T14:40:44.369Z,101293.59
2023-02-09T14:45:58.743Z,101293.86
2023-02-09T14:51:14.729Z,101285.60
2023-02-09T14:56:31.735Z,101291.17
2023-02-09T15:01:34.657Z,101286.88
2023-02-09T15:06:39.218Z,101280.66
2023-02-09T15:12:00.918Z,101277.16
2023-02-09T15:17:14.096Z,101271.10
2023-02-09T15:22:18.024Z,101266.54
2023-02-09T15:27:25.435Z,101270.48
2023-02-09T15:32:28.761Z,101273.07
2023-02-09T15:37:41.927Z,101274.48
2023-02-09T15:43:03.972Z,101279.83
2023-02-09T15:48:07.905Z,101280.05
2023-02-09T15:53:14.920Z,101274.97
2023-02-09T15:58:28.733Z,101272.84
2023-02-09T16:03:35.560Z,101273.09
2023-02-09T16:08:38.752Z,101276.31
2023-02-09T16:13:43.077Z,101282.41
2023-02-09T16:18:48.685Z,101278.45
2023-02-09T16:23:55.620Z,101274.82
2023-02-09T16:28:58.463Z,101270.92
2023-02-09T16:34:05.504Z,101265.08
2023-02-09T16:39:21.620Z,101263.95
2023-02-09T16:44:33.603Z,101258.77
2023-02-09T16:50:36.074Z,101260.58
2023-02-09T16:55:48.055Z,101261.39
2023-02-09T17:00:54.136Z,101249.02
2023-02-09T17:05:58.303Z,101237.83
2023-02-09T17:11:03.922Z,101236.94
2023-02-09T17:16:09.218Z,101232.06
2023-02-09T17:21:25.627Z,101230.56
2023-02-09T17:26:28.977Z,101225.05
2023-02-09T17:31:52.925Z,101215.84
2023-02-09T17:36:58.526Z,101211.86
2023-02-09T17:42:01.393Z,101210.27
2023-02-09T17:47:04.314Z,101210.70
2023-02-09T17:52:11.331Z,101205.77
2023-02-09T17:57:16.404Z,101208.17
2023-02-09T18:02:20.635Z,101200.79
2023-02-09T18:07:23.959Z,101197.45
2023-02-09T18:12:27.239Z,101193.64
2023-02-09T18:17:31.307Z,101185.84
2023-02-09T18:22:34.161Z,101178.41
2023-02-09T18:27:37.010Z,101171.54
2023-02-09T18:32:40.398Z,101171.05
2023-02-09T18:37:44.432Z,101160.10
2023-02-09T18:42:48.535Z,101159.25
2023-02-09T18:47:52.495Z,101153.50
2023-02-09T18:52:57.480Z,101159.98
2023-02-09T18:58:03.994Z,101148.05
2023-02-09T19:03:06.886Z,101142.64
2023-02-09T19:08:10.321Z,101134.98
2023-02-09T19:13:13.178Z,101126.46
2023-02-09T19:18:15.996Z,101122.98
2023-02-09T19:23:18.806Z,101119.02
2023-02-09T19:28:21.648Z,101107.91
2023-02-09T19:33:24.538Z,101107.15
2023-02-09T19:38:27.378Z,101107.55
2023-02-09T19:43:30.268Z,101100.55
2023-02-09T19:48:33.264Z,101095.86
2023-02-09T19:53:36.365Z,101079.67
2023-02-09T19:58:39.182Z,101075.52
2023-02-09T20:03:42.504Z,101072.34
2023-02-09T20:08:45.380Z,101070.49
2023-02-09T20:13:52.670Z,101066.89
2023-02-09T20:18:55.899Z,101065.00
2023-02-09T20:23:58.709Z,101063.31
2023-02-09T20:29:05.449Z,101059.85
2023-02-09T20:34:12.353Z,101053.29
2023-02-09T20:39:16.484Z,101042.56
2023-02-09T20:44:37.880Z,101035.20
2023-02-09T20:49:40.884Z,101026.17
2023-02-09T20:54:43.719Z,101026.85
2023-02-09T20:59:46.612Z,101030.20
2023-02-09T21:04:49.539Z,101027.66
2023-02-09T21:09:56.168Z,101020.86
2023-02-09T21:14:59.257Z,101006.98
2023-02-09T21:20:02.957Z,100996.96
2023-02-09T21:25:06.198Z,100998.17
2023-02-09T21:30:09.828Z,100997.22
2023-02-09T21:35:12.979Z,100991.11
2023-02-09T21:40:16.416Z,100990.38
2023-02-09T21:45:19.455Z,101002.34
2023-02-09T21:50:22.298Z,101012.42
2023-02-09T21:55:25.401Z,101019.59
2023-02-09T22:00:30.846Z,101017.78
2023-02-09T22:05:33.703Z,101016.61
2023-02-09T22:10:36.979Z,101007.42
2023-02-09T22:15:41.624Z,101010.16
2023-02-09T22:20:47.310Z,101009.67
2023-02-09T22:25:50.256Z,101014.80
2023-02-09T22:30:53.097Z,101030.84
2023-02-09T22:35:55.963Z,101027.44
2023-02-09T22:41:21.665Z,101015.90
2023-02-09T22:46:29.368Z,101012.35
2023-02-09T22:51:33.940Z,101005.09
2023-02-09T22:56:36.784Z,101009.03
2023-02-09T23:01:40.124Z,101013.46
2023-02-09T23:06:42.972Z,101024.04
2023-02-09T23:11:45.796Z,101014.85
2023-02-09T23:16:48.729Z,101007.73
2023-02-09T23:21:52.498Z,101008.30
2023-02-09T23:26:55.456Z,101010.04
2023-02-09T23:31:58.687Z,101006.64
2023-02-09T23:37:13.110Z,101004.25
2023-02-09T23:42:25.426Z,100990.33
2023-02-09T23:47:28.292Z,100990.52
2023-02-09T23:52:31.128Z,100978.80
2023-02-09T23:57:34.014Z,100983.24
